Time;durP1;ratioP1;P1;durP2;ratioP2;P2;SDS_P1;SDS_P2;PMS_P1;PMS_P2;Temp;Humidity;BMP_temperature;BMP_pressure;BME280_temperature;BME280_humidity;BME280_pressure;Samples;Min_cycle;Max_cycle;Signal;HPM_P1;HPM_P2
2023/02/05 00:01:20;;;;;;;;;;;;;;;20.02;33.78;101144.86;105875;1286;61318;-81
2023/02/05 00:03:46;;;;;;;;;;;;;;;20.01;33.48;101148.64;105735;1286;61326;-81
2023/02/05 00:06:11;;;;;;;;;;;;;;;20.00;33.53;101160.64;105958;1285;59961;-81
2023/02/05 00:08:37;;;;;;;;;;;;;;;20.01;33.54;101167.24;105696;1286;61359;-81
2023/02/05 00:11:08;;;;;;;;;;;;;;;20.01;33.67;101168.14;105902;1286;61307;-81
2023/02/05 00:13:36;;;;;;;;;;;;;;;20.00;33.64;101169.41;105882;1284;61073;-81
2023/02/05 00:16:09;;;;;;;;;;;;;;;20.00;33.69;101175.31;105925;1285;61173;-81
2023/02/05 00:18:36;;;;;;;;;;;;;;;20.00;33.62;101177.47;105847;1286;72883;-81
2023/02/05 00:21:02;;;;;;;;;;;;;;;20.00;33.59;101181.01;105877;1286;75627;-81
2023/02/05 00:23:27;;;;;;;;;;;;;;;20.00;33.56;101181.39;105945;1285;61270;-81
2023/02/05 00:25:53;;;;;;;;;;;;;;;20.00;33.44;101185.31;105900;1285;61429;-81
2023/02/05 00:28:18;;;;;;;;;;;;;;;20.00;33.53;101181.57;105859;1286;61298;-81
2023/02/05 00:30:44;;;;;;;;;;;;;;;19.99;33.63;101189.64;105856;1286;61625;-81
2023/02/05 00:33:09;;;;;;;;;;;;;;;19.99;33.45;101189.29;105916;1290;61238;-81
2023/02/05 00:35:35;;;;;;;;;;;;;;;19.99;33.46;101187.73;105957;1286;61285;-81
2023/02/05 00:38:00;;;;;;;;;;;;;;;19.99;33.56;101189.86;105910;1284;61267;-81
2023/02/05 00:40:26;;;;;;;;;;;;;;;19.99;33.45;101190.41;105904;1284;61227;-81
2023/02/05 00:42:51;;;;;;;;;;;;;;;19.98;33.50;101188.63;106011;1284;61478;-81
2023/02/05 00:45:17;;;;;;;;;;;;;;;19.99;33.53;101190.08;105894;1286;61348;-81
2023/02/05 00:47:42;;;;;;;;;;;;;;;19.98;33.35;101187.21;105899;1285;61229;-81
2023/02/05 00:50:08;;;;;;;;;;;;;;;19.98;33.44;101195.45;105904;1286;61266;-81
2023/02/05 00:52:33;;;;;;;;;;;;;;;19.98;33.52;101195.27;105933;1288;61259;-81
2023/02/05 00:54:58;;;;;;;;;;;;;;;19.98;33.41;101199.02;105857;1286;61285;-81
2023/02/05 00:57:24;;;;;;;;;;;;;;;19.98;33.41;101197.26;105749;1286;61314;-81
2023/02/05 00:59:53;;;;;;;;;;;;;;;19.97;33.54;101195.66;105880;1286;61383;-81
2023/02/05 01:02:22;;;;;;;;;;;;;;;19.97;33.30;101193.34;105948;1286;61307;-82
2023/02/05 01:04:49;;;;;;;;;;;;;;;19.97;33.46;101197.08;105941;1285;72455;-82
2023/02/05 01:07:15;;;;;;;;;;;;;;;19.97;33.39;101197.63;105934;1285;61425;-82
2023/02/05 01:09:40;;;;;;;;;;;;;;;19.97;33.41;101204.60;105863;1286;61157;-82
2023/02/05 01:12:06;;;;;;;;;;;;;;;19.97;33.33;101199.61;105716;1284;61284;-81
2023/02/05 01:14:32;;;;;;;;;;;;;;;19.97;33.43;101201.23;105645;1286;61397;-81
2023/02/05 01:16:57;;;;;;;;;;;;;;;19.96;33.39;101202.52;105978;1286;61272;-81
2023/02/05 01:19:23;;;;;;;;;;;;;;;19.96;33.28;101203.42;105856;1285;74446;-81
2023/02/05 01:21:49;;;;;;;;;;;;;;;19.96;33.41;101206.81;105907;1286;61223;-81
2023/02/05 01:24:14;;;;;;;;;;;;;;;19.97;33.32;101209.45;105879;1284;61310;-81
2023/02/05 01:26:40;;;;;;;;;;;;;;;19.96;33.33;101204.66;105952;1285;61260;-81
2023/02/05 01:29:05;;;;;;;;;;;;;;;19.96;33.20;101208.05;105901;1286;61298;-81
2023/02/05 01:31:32;;;;;;;;;;;;;;;19.96;33.31;101214.31;105894;1285;75493;-81
2023/02/05 01:33:57;;;;;;;;;;;;;;;19.96;33.29;101209.50;105874;1286;61186;-81
2023/02/05 01:36:23;;;;;;;;;;;;;;;19.96;33.33;101212.01;105895;1286;61279;-81
2023/02/05 01:38:48;;;;;;;;;;;;;;;19.96;33.19;101212.02;105866;1286;61246;-81
2023/02/05 01:41:14;;;;;;;;;;;;;;;19.96;33.16;101217.22;105894;1286;61381;-81
2023/02/05 01:43:39;;;;;;;;;;;;;;;19.96;33.23;101217.92;105999;1286;61219;-81
2023/02/05 01:46:24;;;;;;;;;;;;;;;19.95;33.20;101225.80;105895;1285;61246;-81
2023/02/05 01:48:51;;;;;;;;;;;;;;;19.95;33.31;101222.77;105884;1284;61108;-81
2023/02/05 01:51:17;;;;;;;;;;;;;;;19.95;33.26;101224.40;105730;1286;73418;-81
2023/02/05 01:53:43;;;;;;;;;;;;;;;19.95;33.12;101236.55;105905;1285;61330;-81
2023/02/05 01:56:10;;;;;;;;;;;;;;;19.95;33.16;101236.57;105968;1285;61243;-81
2023/02/05 01:58:37;;;;;;;;;;;;;;;19.95;33.08;101247.45;105855;1286;61282;-81
2023/02/05 02:01:02;;;;;;;;;;;;;;;19.95;33.11;101262.84;105694;1284;61238;-81
2023/02/05 02:03:28;;;;;;;;;;;;;;;19.95;33.19;101260.14;105888;1286;61381;-81
2023/02/05 02:05:56;;;;;;;;;;;;;;;19.95;33.12;101257.30;105853;1286;61270;-81
2023/02/05 02:08:22;;;;;;;;;;;;;;;19.95;33.14;101265.33;105942;1285;61260;-82
2023/02/05 02:10:47;;;;;;;;;;;;;;;19.95;33.17;101269.08;105886;1286;61300;-81
2023/02/05 02:13:13;;;;;;;;;;;;;;;19.94;33.03;101272.14;105678;1291;61313;-81
2023/02/05 02:15:38;;;;;;;;;;;;;;;19.93;33.03;101272.34;105897;1286;61255;-81
2023/02/05 02:20:56;;;;;;;;;;;;;;;19.94;32.97;101274.13;105871;1285;61170;-81
2023/02/05 02:23:37;;;;;;;;;;;;;;;19.94;33.03;101280.19;105909;1286;72515;-81
2023/02/05 02:26:09;;;;;;;;;;;;;;;19.94;32.95;101278.75;105944;1285;75441;-81
2023/02/05 02:28:34;;;;;;;;;;;;;;;19.93;33.11;101280.57;105981;1286;61209;-81
2023/02/05 02:31:05;;;;;;;;;;;;;;;19.94;33.11;101282.50;106021;1286;61263;-81
2023/02/05 02:33:31;;;;;;;;;;;;;;;19.94;32.95;101282.52;105955;1286;72571;-81
2023/02/05 02:36:00;;;;;;;;;;;;;;;19.94;32.78;101292.17;105944;1286;61273;-81
2023/02/05 02:38:32;;;;;;;;;;;;;;;19.93;32.91;101299.85;105877;1286;61320;-81
2023/02/05 02:41:00;;;;;;;;;;;;;;;19.94;33.00;101300.38;105957;1285;61271;-81
2023/02/05 02:43:28;;;;;;;;;;;;;;;19.94;32.74;101307.52;105858;1286;72480;-82
2023/02/05 02:45:55;;;;;;;;;;;;;;;19.93;32.96;101314.14;105668;1288;74540;-82
2023/02/05 02:48:21;;;;;;;;;;;;;;;19.94;32.79;101321.80;105853;1286;60901;-81
2023/02/05 02:50:47;;;;;;;;;;;;;;;19.94;32.91;101323.79;105866;1285;61237;-81
2023/02/05 02:53:14;;;;;;;;;;;;;;;19.94;33.01;101324.82;105706;1286;61285;-81
2023/02/05 02:55:41;;;;;;;;;;;;;;;19.93;32.82;101328.62;105926;1286;61230;-81
2023/02/05 02:58:10;;;;;;;;;;;;;;;19.93;32.94;101327.73;105886;1284;61240;-81
2023/02/05 03:00:35;;;;;;;;;;;;;;;19.94;32.67;101331.27;105938;1285;61829;-81
2023/02/05 03:03:02;;;;;;;;;;;;;;;19.93;32.75;101333.80;105648;1285;61262;-81
2023/02/05 03:05:28;;;;;;;;;;;;;;;19.94;32.88;101338.42;105868;1286;61329;-81
2023/02/05 03:07:58;;;;;;;;;;;;;;;19.93;32.68;101339.35;105931;1285;61336;-81
2023/02/05 03:10:30;;;;;;;;;;;;;;;19.93;32.82;101339.70;105858;1286;61356;-81
2023/02/05 03:12:55;;;;;;;;;;;;;;;19.93;32.77;101346.66;105875;1285;72641;-81
2023/02/05 03:15:21;;;;;;;;;;;;;;;19.93;32.78;101347.02;105923;1286;61274;-81
2023/02/05 03:17:46;;;;;;;;;;;;;;;19.92;32.79;101348.31;105887;1286;61269;-81
2023/02/05 03:20:16;;;;;;;;;;;;;;;19.92;32.68;101355.11;105860;1284;61304;-81
2023/02/05 03:22:42;;;;;;;;;;;;;;;19.92;32.77;101357.27;105855;1285;72301;-81
2023/02/05 03:25:08;;;;;;;;;;;;;;;19.92;32.84;101361.91;105870;1286;61285;-81
2023/02/05 03:27:33;;;;;;;;;;;;;;;19.92;32.66;101370.67;105850;1287;59143;-81
2023/02/05 03:29:59;;;;;;;;;;;;;;;19.93;32.72;101377.41;105876;1285;61313;-81
2023/02/05 03:32:40;;;;;;;;;;;;;;;19.92;32.75;101378.16;105884;1286;61362;-81
2023/02/05 03:35:07;;;;;;;;;;;;;;;19.92;32.74;101375.14;105870;1286;73397;-81
2023/02/05 03:37:50;;;;;;;;;;;;;;;19.92;32.75;101381.58;105912;1285;61422;-81
2023/02/05 03:43:28;;;;;;;;;;;;;;;19.92;32.50;101398.04;105328;1292;72360;-81
2023/02/05 03:45:59;;;;;;;;;;;;;;;19.92;32.60;101403.02;105305;1292;74703;-81
2023/02/05 03:48:36;;;;;;;;;;;;;;;19.92;32.74;101408.38;105312;1293;61221;-81
2023/02/05 03:51:09;;;;;;;;;;;;;;;19.92;32.51;101410.14;105333;1292;61120;-81
2023/02/05 03:53:36;;;;;;;;;;;;;;;19.92;32.78;101415.70;105317;1292;71819;-81
2023/02/05 03:56:12;;;;;;;;;;;;;;;19.92;32.61;101417.29;105319;1291;74392;-81
2023/02/05 03:58:42;;;;;;;;;;;;;;;19.92;32.58;101420.88;105215;1292;61234;-81
2023/02/05 04:01:07;;;;;;;;;;;;;;;19.92;32.51;101423.20;105262;1291;61382;-81
2023/02/05 04:03:33;;;;;;;;;;;;;;;19.92;32.55;101428.56;105329;1292;61423;-81
2023/02/05 04:05:58;;;;;;;;;;;;;;;19.92;32.51;101438.72;105192;1292;61316;-81
2023/02/05 04:08:24;;;;;;;;;;;;;;;19.92;32.58;101438.23;105333;1291;61382;-81
2023/02/05 04:10:49;;;;;;;;;;;;;;;19.92;32.64;101438.75;105156;1292;61260;-81
2023/02/05 04:13:15;;;;;;;;;;;;;;;19.92;32.38;101447.48;105160;1293;61361;-81
2023/02/05 04:15:41;;;;;;;;;;;;;;;19.92;32.50;101450.39;105316;1292;60014;-81
2023/02/05 04:18:07;;;;;;;;;;;;;;;19.92;32.42;101448.76;105274;1293;61371;-81
2023/02/05 04:20:33;;;;;;;;;;;;;;;19.91;32.41;101452.36;105432;1286;61593;-81
2023/02/05 04:22:58;;;;;;;;;;;;;;;19.91;32.50;101453.45;105930;1286;61272;-81
2023/02/05 04:25:24;;;;;;;;;;;;;;;19.91;32.54;101458.98;105881;1284;61205;-81
2023/02/05 04:27:49;;;;;;;;;;;;;;;19.91;32.45;101458.64;105890;1286;60064;-81
2023/02/05 04:30:15;;;;;;;;;;;;;;;19.91;32.59;101463.64;105872;1285;61243;-81
2023/02/05 04:32:40;;;;;;;;;;;;;;;19.91;32.47;101468.30;105865;1286;61410;-81
2023/02/05 04:35:06;;;;;;;;;;;;;;;19.90;32.37;101470.81;105874;1285;61343;-81
2023/02/05 04:37:33;;;;;;;;;;;;;;;19.90;32.46;101472.08;105941;1288;61221;-81
2023/02/05 04:39:58;;;;;;;;;;;;;;;19.90;32.32;101474.57;105857;1286;61361;-81
2023/02/05 04:42:24;;;;;;;;;;;;;;;19.90;32.37;101471.73;105891;1286;61294;-81
2023/02/05 04:44:51;;;;;;;;;;;;;;;19.90;32.45;101473.34;105858;1286;61343;-81
2023/02/05 04:47:17;;;;;;;;;;;;;;;19.90;32.44;101474.92;105861;1285;61231;-81
2023/02/05 04:49:43;;;;;;;;;;;;;;;19.90;32.41;101477.80;105866;1286;61238;-81
2023/02/05 04:52:09;;;;;;;;;;;;;;;19.89;32.28;101486.23;105898;1286;61269;-81
2023/02/05 04:54:36;;;;;;;;;;;;;;;19.89;32.46;101485.92;105765;1286;61292;-81
2023/02/05 04:57:01;;;;;;;;;;;;;;;19.89;32.28;101490.73;105936;1290;61297;-81
2023/02/05 04:59:28;;;;;;;;;;;;;;;19.89;32.45;101494.30;105688;1284;61369;-81
2023/02/05 05:01:54;;;;;;;;;;;;;;;19.89;32.40;101496.08;105950;1288;61194;-81
2023/02/05 05:04:19;;;;;;;;;;;;;;;19.89;32.31;101497.50;105843;1286;61281;-81
2023/02/05 05:06:45;;;;;;;;;;;;;;;19.89;32.22;101496.05;105911;1286;61381;-81
2023/02/05 05:09:10;;;;;;;;;;;;;;;19.88;32.40;101500.77;105929;1286;61389;-81
2023/02/05 05:11:36;;;;;;;;;;;;;;;19.88;32.28;101504.87;105680;1286;59322;-81
2023/02/05 05:14:01;;;;;;;;;;;;;;;19.88;32.29;101508.62;105673;1286;61266;-81
2023/02/05 05:16:27;;;;;;;;;;;;;;;19.88;32.29;101510.80;105886;1286;61266;-81
2023/02/05 05:18:52;;;;;;;;;;;;;;;19.88;32.12;101516.31;105888;1286;61307;-81
2023/02/05 05:21:18;;;;;;;;;;;;;;;19.88;32.28;101518.84;105873;1286;61275;-81
2023/02/05 05:23:43;;;;;;;;;;;;;;;19.88;32.32;101518.83;105861;1286;61382;-81
2023/02/05 05:26:10;;;;;;;;;;;;;;;19.88;32.13;101523.29;105940;1288;61282;-81
2023/02/05 05:28:35;;;;;;;;;;;;;;;19.87;32.13;101530.46;105953;1285;61375;-81
2023/02/05 05:31:13;;;;;;;;;;;;;;;19.87;32.30;101535.30;105893;1284;61311;-81
2023/02/05 05:33:38;;;;;;;;;;;;;;;19.88;32.29;101539.92;105530;1284;72551;-81
2023/02/05 05:36:05;;;;;;;;;;;;;;;19.87;32.17;101543.52;105949;1288;61374;-81
2023/02/05 05:38:30;;;;;;;;;;;;;;;19.87;32.18;101547.79;105890;1285;61220;-81
2023/02/05 05:43:46;;;;;;;;;;;;;;;19.88;32.14;101557.61;105946;1286;73731;-81
2023/02/05 05:46:14;;;;;;;;;;;;;;;19.87;32.25;101569.27;105919;1285;75391;-81
2023/02/05 05:48:40;;;;;;;;;;;;;;;19.87;32.17;101574.41;105934;1285;61316;-81
2023/02/05 05:51:06;;;;;;;;;;;;;;;19.88;32.24;101580.65;105972;1286;59370;-81
2023/02/05 05:53:31;;;;;;;;;;;;;;;19.87;32.24;101588.16;105884;1286;61218;-81
2023/02/05 05:55:57;;;;;;;;;;;;;;;19.87;32.10;101594.79;105842;1286;61361;-82
2023/02/05 05:58:22;;;;;;;;;;;;;;;19.87;32.19;101599.60;105690;1288;61253;-82
2023/02/05 06:00:48;;;;;;;;;;;;;;;19.87;32.17;101602.46;105889;1286;61253;-81
2023/02/05 06:03:13;;;;;;;;;;;;;;;19.87;32.07;101608.54;105907;1285;61278;-81
2023/02/05 06:05:39;;;;;;;;;;;;;;;19.87;32.15;101609.63;105862;1291;61292;-81
2023/02/05 06:08:05;;;;;;;;;;;;;;;19.87;32.10;101613.02;105859;1289;61218;-81
2023/02/05 06:10:31;;;;;;;;;;;;;;;19.87;32.09;101610.52;105848;1289;61374;-81
2023/02/05 06:12:58;;;;;;;;;;;;;;;19.87;32.08;101616.57;105849;1287;61152;-81
2023/02/05 06:15:25;;;;;;;;;;;;;;;19.88;31.99;101619.23;105949;1288;61358;-81
2023/02/05 06:17:52;;;;;;;;;;;;;;;19.88;31.94;101622.98;105858;1287;61278;-81
2023/02/05 06:20:18;;;;;;;;;;;;;;;19.87;32.00;101623.02;105969;1288;61352;-81
2023/02/05 06:22:43;;;;;;;;;;;;;;;19.87;32.06;101625.88;105867;1285;61301;-81
2023/02/05 06:25:09;;;;;;;;;;;;;;;19.88;31.95;101621.55;105748;1286;59945;-81
2023/02/05 06:27:34;;;;;;;;;;;;;;;19.87;32.01;101623.90;105893;1292;61182;-81
2023/02/05 06:30:00;;;;;;;;;;;;;;;19.88;32.08;101624.60;105838;1291;61186;-81
2023/02/05 06:32:25;;;;;;;;;;;;;;;19.88;32.05;101627.81;105858;1286;61455;-81
2023/02/05 06:34:51;;;;;;;;;;;;;;;19.87;31.88;101624.62;105669;1286;61360;-81
2023/02/05 06:37:16;;;;;;;;;;;;;;;19.87;32.10;101623.73;105685;1291;61237;-81
2023/02/05 06:39:42;;;;;;;;;;;;;;;19.88;32.02;101629.23;105885;1291;61460;-81
2023/02/05 06:42:08;;;;;;;;;;;;;;;19.88;31.97;101632.98;105856;1289;74391;-81
2023/02/05 06:44:33;;;;;;;;;;;;;;;19.88;32.03;101635.85;105847;1286;61256;-81
2023/02/05 06:46:59;;;;;;;;;;;;;;;19.88;32.01;101639.06;105936;1286;61252;-81
2023/02/05 06:49:25;;;;;;;;;;;;;;;19.88;32.07;101640.11;105842;1286;61268;-81
2023/02/05 06:51:51;;;;;;;;;;;;;;;19.89;32.10;101641.50;105703;1286;61278;-81
2023/02/05 06:54:17;;;;;;;;;;;;;;;19.89;31.99;101640.61;105934;1288;61256;-81
2023/02/05 06:56:46;;;;;;;;;;;;;;;19.89;32.05;101643.11;105858;1290;61756;-81
2023/02/05 06:59:11;;;;;;;;;;;;;;;19.88;31.97;101639.56;105859;1284;61358;-81
2023/02/05 07:01:37;;;;;;;;;;;;;;;19.88;32.10;101645.31;105267;1288;873734;-81
2023/02/05 07:04:02;;;;;;;;;;;;;;;19.88;31.95;101652.10;105903;1286;61474;-83
2023/02/05 07:06:28;;;;;;;;;;;;;;;19.88;32.03;101651.70;105983;1286;61155;-82
2023/02/05 07:08:53;;;;;;;;;;;;;;;19.88;31.95;101656.17;105888;1289;61391;-82
2023/02/05 07:11:19;;;;;;;;;;;;;;;19.88;31.84;101658.14;105853;1287;61307;-82
2023/02/05 07:13:44;;;;;;;;;;;;;;;19.89;31.97;101661.70;105666;1287;61744;-82
2023/02/05 07:16:10;;;;;;;;;;;;;;;19.88;31.91;101661.38;105871;1285;61298;-81
2023/02/05 07:18:35;;;;;;;;;;;;;;;19.88;32.05;101665.81;105925;1286;60088;-82
2023/02/05 07:21:05;;;;;;;;;;;;;;;19.88;32.00;101663.86;105899;1286;61359;-82
2023/02/05 07:23:30;;;;;;;;;;;;;;;19.88;31.98;101661.55;105866;1286;72560;-81
2023/02/05 07:25:56;;;;;;;;;;;;;;;19.88;32.03;101660.30;105867;1286;61384;-81
2023/02/05 07:28:21;;;;;;;;;;;;;;;19.89;32.00;101661.52;105873;1287;61281;-81
2023/02/05 07:30:48;;;;;;;;;;;;;;;19.89;31.92;101673.11;105923;1286;61346;-81
2023/02/05 07:33:14;;;;;;;;;;;;;;;19.89;32.02;101674.02;105875;1284;61263;-81
2023/02/05 07:35:40;;;;;;;;;;;;;;;19.89;31.80;101670.41;105937;1286;61278;-81
2023/02/05 07:38:05;;;;;;;;;;;;;;;19.89;31.84;101677.56;105734;1286;61313;-81
2023/02/05 07:40:31;;;;;;;;;;;;;;;19.89;31.78;101677.37;105867;1286;61295;-81
2023/02/05 07:42:56;;;;;;;;;;;;;;;19.89;31.92;101678.09;105855;1286;61407;-81
2023/02/05 07:45:22;;;;;;;;;;;;;;;19.89;31.83;101679.88;105930;1286;71316;-81
2023/02/05 07:47:52;;;;;;;;;;;;;;;19.90;31.92;101679.14;105820;1289;61397;-82
2023/02/05 07:50:18;;;;;;;;;;;;;;;19.89;31.97;101681.50;105874;1285;61122;-82
2023/02/05 07:52:44;;;;;;;;;;;;;;;19.90;31.80;101681.81;105862;1285;61281;-81
2023/02/05 07:55:09;;;;;;;;;;;;;;;19.90;31.88;101680.05;105879;1286;61776;-81
2023/02/05 07:57:35;;;;;;;;;;;;;;;19.90;31.81;101682.02;105919;1286;61239;-81
2023/02/05 08:00:00;;;;;;;;;;;;;;;19.90;31.76;101681.82;105986;1286;61269;-81
2023/02/05 08:02:26;;;;;;;;;;;;;;;19.89;31.90;101681.84;105838;1286;61173;-81
2023/02/05 08:04:52;;;;;;;;;;;;;;;19.90;31.77;101686.30;105863;1286;61253;-81
2023/02/05 08:07:19;;;;;;;;;;;;;;;19.90;31.76;101687.73;105955;1286;61312;-81
2023/02/05 08:09:44;;;;;;;;;;;;;;;19.90;31.69;101685.55;105841;1289;61208;-81
2023/02/05 08:12:10;;;;;;;;;;;;;;;19.90;31.79;101690.91;105854;1286;61913;-81
2023/02/05 08:14:36;;;;;;;;;;;;;;;19.90;31.78;101694.86;105930;1286;61275;-81
2023/02/05 08:17:03;;;;;;;;;;;;;;;19.90;31.86;101703.77;105694;1286;61141;-81
2023/02/05 08:19:28;;;;;;;;;;;;;;;19.90;31.83;101701.27;105923;1286;61257;-81
2023/02/05 08:21:54;;;;;;;;;;;;;;;19.91;31.71;101709.65;105963;1286;61345;-81
2023/02/05 08:24:19;;;;;;;;;;;;;;;19.91;31.84;101712.48;105924;1286;61325;-81
2023/02/05 08:26:45;;;;;;;;;;;;;;;19.91;31.74;101719.46;105688;1285;61333;-81
2023/02/05 08:29:10;;;;;;;;;;;;;;;19.91;31.85;101722.33;105877;1286;61263;-81
2023/02/05 08:31:36;;;;;;;;;;;;;;;19.91;31.69;101715.34;105672;1288;61288;-81
2023/02/05 08:34:02;;;;;;;;;;;;;;;19.91;31.76;101719.46;105915;1286;61289;-81
2023/02/05 08:36:28;;;;;;;;;;;;;;;19.91;31.73;101711.23;105847;1286;61297;-81
2023/02/05 08:38:54;;;;;;;;;;;;;;;19.91;31.73;101715.87;105874;1285;61163;-81
2023/02/05 08:41:19;;;;;;;;;;;;;;;19.91;31.77;101712.13;105945;1286;61304;-81
2023/02/05 08:43:46;;;;;;;;;;;;;;;19.90;31.66;101706.98;105936;1285;61273;-81
2023/02/05 08:46:12;;;;;;;;;;;;;;;19.91;31.71;101702.67;105948;1285;61266;-81
2023/02/05 08:48:37;;;;;;;;;;;;;;;19.90;31.73;101707.70;105880;1286;61230;-81
2023/02/05 08:51:03;;;;;;;;;;;;;;;19.91;31.61;101711.95;105931;1284;61387;-81
2023/02/05 08:53:29;;;;;;;;;;;;;;;19.90;31.76;101709.65;105924;1286;61275;-81
2023/02/05 08:55:55;;;;;;;;;;;;;;;19.90;31.71;101709.48;105681;1286;75430;-81
2023/02/05 08:58:21;;;;;;;;;;;;;;;19.91;31.78;101713.76;105888;1286;61385;-81
2023/02/05 09:00:47;;;;;;;;;;;;;;;19.90;31.49;101718.58;105860;1286;61839;-81
2023/02/05 09:03:13;;;;;;;;;;;;;;;19.90;31.56;101716.97;105865;1289;61327;-81
2023/02/05 09:05:38;;;;;;;;;;;;;;;19.91;31.59;101717.30;105860;1284;61322;-81
2023/02/05 09:08:04;;;;;;;;;;;;;;;19.91;31.45;101712.31;105920;1288;61253;-81
2023/02/05 09:10:30;;;;;;;;;;;;;;;19.91;31.61;101712.29;105963;1285;61246;-81
2023/02/05 09:12:55;;;;;;;;;;;;;;;19.92;31.51;101715.13;105948;1285;61306;-81
2023/02/05 09:15:21;;;;;;;;;;;;;;;19.92;31.64;101722.42;105858;1286;61416;-81
2023/02/05 09:17:46;;;;;;;;;;;;;;;19.93;31.38;101722.02;105688;1286;61275;-81
2023/02/05 09:20:13;;;;;;;;;;;;;;;19.93;31.49;101722.20;105937;1286;61355;-81
2023/02/05 09:22:39;;;;;;;;;;;;;;;19.94;31.39;101716.81;105882;1286;61294;-81
2023/02/05 09:25:05;;;;;;;;;;;;;;;19.95;31.43;101716.26;105943;1285;61255;-81
2023/02/05 09:27:31;;;;;;;;;;;;;;;19.95;31.42;101719.44;105862;1287;72369;-81
2023/02/05 09:29:56;;;;;;;;;;;;;;;19.96;31.33;101722.98;105847;1291;60054;-81
2023/02/05 09:32:22;;;;;;;;;;;;;;;19.95;31.31;101727.50;105867;1286;61724;-81
2023/02/05 09:34:48;;;;;;;;;;;;;;;19.95;31.29;101722.67;105728;1286;59978;-81
2023/02/05 09:37:14;;;;;;;;;;;;;;;19.96;31.36;101729.25;105853;1290;61173;-81
2023/02/05 09:39:40;;;;;;;;;;;;;;;19.95;31.29;101734.27;105938;1286;61279;-81
2023/02/05 09:42:25;;;;;;;;;;;;;;;19.94;31.30;101739.48;105898;1286;74597;-81
2023/02/05 09:45:09;;;;;;;;;;;;;;;19.94;31.20;101731.98;105966;1285;61244;-81
2023/02/05 09:50:42;;;;;;;;;;;;;;;19.96;31.05;101725.63;105353;1292;72521;-81
2023/02/05 09:53:10;;;;;;;;;;;;;;;19.97;31.08;101723.64;105355;1291;61375;-81
2023/02/05 09:55:36;;;;;;;;;;;;;;;19.98;31.05;101729.67;105227;1292;61182;-81
2023/02/05 09:58:05;;;;;;;;;;;;;;;19.98;31.13;101727.29;105229;1291;61269;-81
2023/02/05 10:00:37;;;;;;;;;;;;;;;19.99;31.10;101725.84;105239;1296;73438;-81
2023/02/05 10:03:09;;;;;;;;;;;;;;;20.00;30.94;101730.08;105218;1292;74054;-81
2023/02/05 10:05:41;;;;;;;;;;;;;;;20.01;30.96;101729.13;105371;1291;61361;-81
2023/02/05 10:08:09;;;;;;;;;;;;;;;20.02;30.99;101722.84;105343;1292;61165;-81
2023/02/05 10:10:50;;;;;;;;;;;;;;;20.03;31.06;101718.49;105348;1291;73723;-81
2023/02/05 10:13:36;;;;;;;;;;;;;;;20.04;30.91;101719.84;105199;1292;74557;-81
2023/02/05 10:16:01;;;;;;;;;;;;;;;20.05;30.91;101711.95;104630;1300;61421;-81
2023/02/05 10:18:39;;;;;;;;;;;;;;;20.06;30.85;101721.56;104651;1301;61237;-81
2023/02/05 10:21:17;;;;;;;;;;;;;;;20.06;30.66;101722.08;104632;1300;72544;-81
2023/02/05 10:23:45;;;;;;;;;;;;;;;20.07;30.64;101722.39;104556;1306;73452;-81
2023/02/05 10:26:11;;;;;;;;;;;;;;;20.08;30.67;101721.80;104631;1299;61178;-81
2023/02/05 10:28:44;;;;;;;;;;;;;;;20.08;30.79;101723.77;104911;1294;61292;-81
2023/02/05 10:31:28;;;;;;;;;;;;;;;20.08;30.62;101723.21;105003;1294;72554;-81
2023/02/05 10:33:56;;;;;;;;;;;;;;;20.08;30.63;101719.30;105088;1294;75316;-81
2023/02/05 10:36:25;;;;;;;;;;;;;;;20.08;30.66;101720.73;105020;1294;61173;-81
2023/02/05 10:38:51;;;;;;;;;;;;;;;20.08;30.68;101718.56;105021;1294;61267;-81
2023/02/05 10:41:25;;;;;;;;;;;;;;;20.08;30.66;101719.84;105115;1294;61216;-81
2023/02/05 10:43:52;;;;;;;;;;;;;;;20.08;30.67;101717.48;105019;1294;75627;-81
2023/02/05 10:46:18;;;;;;;;;;;;;;;20.07;30.68;101722.01;105140;1294;61149;-81
2023/02/05 10:48:50;;;;;;;;;;;;;;;20.07;30.70;101722.94;105123;1294;61455;-81
2023/02/05 10:51:16;;;;;;;;;;;;;;;20.07;30.69;101724.34;104928;1295;71418;-81
2023/02/05 10:53:42;;;;;;;;;;;;;;;20.06;30.58;101722.41;105436;1286;61259;-81
2023/02/05 10:56:09;;;;;;;;;;;;;;;20.06;30.54;101723.67;105872;1291;61340;-81
2023/02/05 10:58:37;;;;;;;;;;;;;;;20.06;30.61;101718.52;105883;1286;61128;-81
2023/02/05 11:01:16;;;;;;;;;;;;;;;20.04;30.80;101717.87;105925;1285;73545;-81
2023/02/05 11:04:02;;;;;;;;;;;;;;;20.04;30.70;101720.75;105908;1288;74347;-81
2023/02/05 11:06:30;;;;;;;;;;;;;;;20.03;30.74;101725.59;105931;1286;61308;-81
2023/02/05 11:08:56;;;;;;;;;;;;;;;20.03;30.61;101727.95;105838;1286;61468;-81
2023/02/05 11:11:26;;;;;;;;;;;;;;;20.02;30.51;101728.89;105951;1288;60012;-80
2023/02/05 11:14:00;;;;;;;;;;;;;;;20.02;30.71;101725.88;105935;1285;74466;-80
2023/02/05 11:16:36;;;;;;;;;;;;;;;20.02;30.76;101727.83;105867;1286;61262;-80
2023/02/05 11:19:02;;;;;;;;;;;;;;;20.01;30.65;101725.02;105980;1285;61239;-80
2023/02/05 11:21:47;;;;;;;;;;;;;;;20.00;30.71;101721.48;105937;1286;61288;-81
2023/02/05 11:24:20;;;;;;;;;;;;;;;20.00;30.65;101723.10;105815;1284;75280;-81
2023/02/05 11:26:48;;;;;;;;;;;;;;;20.00;30.65;101723.27;105697;1286;61510;-81
2023/02/05 11:29:20;;;;;;;;;;;;;;;20.00;30.84;101727.94;105536;1285;61394;-80
2023/02/05 11:31:45;;;;;;;;;;;;;;;19.99;30.75;101723.13;105882;1286;73482;-80
2023/02/05 11:34:12;;;;;;;;;;;;;;;20.00;30.60;101718.11;105938;1286;61320;-80
2023/02/05 11:36:45;;;;;;;;;;;;;;;19.99;30.70;101718.69;105855;1286;61140;-80
2023/02/05 11:39:15;;;;;;;;;;;;;;;19.99;30.63;101717.09;105921;1285;61234;-80
2023/02/05 11:41:47;;;;;;;;;;;;;;;19.99;30.66;101715.85;105715;1286;72257;-80
2023/02/05 11:44:24;;;;;;;;;;;;;;;19.99;30.71;101711.20;105854;1284;74313;-80
2023/02/05 11:46:55;;;;;;;;;;;;;;;19.99;30.64;101717.09;105947;1286;61590;-80
2023/02/05 11:49:22;;;;;;;;;;;;;;;19.99;30.74;101719.79;105882;1286;61273;-80
2023/02/05 11:51:49;;;;;;;;;;;;;;;19.98;30.74;101719.45;105648;1286;72431;-80
2023/02/05 11:54:20;;;;;;;;;;;;;;;19.98;30.71;101725.16;105710;1286;75539;-80
2023/02/05 11:56:59;;;;;;;;;;;;;;;19.98;30.72;101722.16;105743;1288;61162;-80
2023/02/05 11:59:24;;;;;;;;;;;;;;;19.98;30.76;101718.40;105649;1286;61208;-80
2023/02/05 12:01:50;;;;;;;;;;;;;;;19.98;30.75;101723.58;105667;1291;61276;-80
2023/02/05 12:04:17;;;;;;;;;;;;;;;19.98;30.76;101725.72;105703;1286;61279;-80
2023/02/05 12:06:59;;;;;;;;;;;;;;;19.98;30.75;101729.46;105623;1288;61307;-80
2023/02/05 12:09:26;;;;;;;;;;;;;;;19.99;30.78;101726.76;105708;1287;61417;-80
2023/02/05 12:12:05;;;;;;;;;;;;;;;19.98;30.76;101726.07;105673;1286;73190;-80
2023/02/05 12:14:41;;;;;;;;;;;;;;;19.99;30.75;101730.67;105728;1288;73470;-80
2023/02/05 12:17:11;;;;;;;;;;;;;;;19.99;30.60;101734.98;105720;1288;61145;-80
2023/02/05 12:20:06;;;;;;;;;;;;;;;19.99;30.63;101741.56;105782;1286;61362;-80
2023/02/05 12:22:42;;;;;;;;;;;;;;;19.99;30.79;101740.64;105268;1292;72458;-80
2023/02/05 12:25:15;;;;;;;;;;;;;;;20.00;30.72;101742.77;105279;1291;74469;-80
2023/02/05 12:28:01;;;;;;;;;;;;;;;20.00;30.60;101745.63;105264;1291;61134;-80
2023/02/05 12:30:32;;;;;;;;;;;;;;;20.00;30.66;101748.27;105206;1292;61349;-80
2023/02/05 12:33:04;;;;;;;;;;;;;;;20.01;30.60;101748.79;105264;1291;72447;-80
2023/02/05 12:35:48;;;;;;;;;;;;;;;20.01;30.59;101758.25;105251;1291;74555;-81
2023/02/05 12:38:46;;;;;;;;;;;;;;;20.01;30.59;101758.24;105217;1291;61365;-81
2023/02/05 12:41:15;;;;;;;;;;;;;;;20.01;30.65;101760.91;105006;1291;61431;-81